sensor_id;sensor_type;location;lat;lon;timestamp;P1;durP1;ratioP1;P2;durP2;ratioP2
7166;SDS011;3625;51.762;14.320;2023-02-28T04:16:38;12.93;;;9.40;;
7166;SDS011;3625;51.762;14.320;2023-02-28T04:19:14;12.47;;;8.90;;
7166;SDS011;3625;51.762;14.320;2023-02-28T04:21:45;12.23;;;8.83;;
7166;SDS011;3625;51.762;14.320;2023-02-28T04:24:27;12.43;;;9.30;;
7166;SDS011;3625;51.762;14.320;2023-02-28T04:26:58;11.73;;;8.80;;
7166;SDS011;3625;51.762;14.320;2023-02-28T04:29:41;13.73;;;8.97;;
7166;SDS011;3625;51.762;14.320;2023-02-28T04:32:15;14.53;;;9.93;;
7166;SDS011;3625;51.762;14.320;2023-02-28T04:34:50;13.07;;;10.13;;
7166;SDS011;3625;51.762;14.320;2023-02-28T04:37:24;14.47;;;9.37;;
7166;SDS011;3625;51.762;14.320;2023-02-28T04:39:55;11.50;;;9.60;;
7166;SDS011;3625;51.762;14.320;2023-02-28T04:42:26;14.27;;;9.80;;
7166;SDS011;3625;51.762;14.320;2023-02-28T04:45:04;13.43;;;10.00;;
7166;SDS011;3625;51.762;14.320;2023-02-28T04:47:38;12.30;;;9.33;;
7166;SDS011;3625;51.762;14.320;2023-02-28T04:50:10;15.13;;;10.00;;
7166;SDS011;3625;51.762;14.320;2023-02-28T04:52:39;15.77;;;9.00;;
7166;SDS011;3625;51.762;14.320;2023-02-28T04:55:08;13.63;;;8.83;;
7166;SDS011;3625;51.762;14.320;2023-02-28T04:57:47;12.67;;;9.00;;
7166;SDS011;3625;51.762;14.320;2023-02-28T05:00:22;8.77;;;7.33;;
7166;SDS011;3625;51.762;14.320;2023-02-28T05:02:53;11.20;;;7.97;;
7166;SDS011;3625;51.762;14.320;2023-02-28T05:05:30;9.83;;;7.50;;
7166;SDS011;3625;51.762;14.320;2023-02-28T05:08:05;13.23;;;9.20;;
7166;SDS011;3625;51.762;14.320;2023-02-28T05:10:36;13.00;;;8.83;;
7166;SDS011;3625;51.762;14.320;2023-02-28T05:13:06;13.83;;;8.93;;
7166;SDS011;3625;51.762;14.320;2023-02-28T05:15:39;11.47;;;8.13;;
7166;SDS011;3625;51.762;14.320;2023-02-28T05:18:17;11.30;;;8.27;;
7166;SDS011;3625;51.762;14.320;2023-02-28T05:20:53;11.30;;;8.93;;
7166;SDS011;3625;51.762;14.320;2023-02-28T05:23:35;12.63;;;9.97;;
7166;SDS011;3625;51.762;14.320;2023-02-28T05:26:04;12.80;;;9.27;;
7166;SDS011;3625;51.762;14.320;2023-02-28T05:28:39;13.10;;;8.87;;
7166;SDS011;3625;51.762;14.320;2023-02-28T05:31:11;13.33;;;9.20;;
7166;SDS011;3625;51.762;14.320;2023-02-28T05:33:47;15.67;;;9.57;;
7166;SDS011;3625;51.762;14.320;2023-02-28T05:36:18;10.43;;;8.97;;
7166;SDS011;3625;51.762;14.320;2023-02-28T05:38:48;13.13;;;10.07;;
7166;SDS011;3625;51.762;14.320;2023-02-28T05:41:19;15.80;;;10.50;;
7166;SDS011;3625;51.762;14.320;2023-02-28T05:43:56;14.10;;;10.00;;
7166;SDS011;3625;51.762;14.320;2023-02-28T05:46:30;13.53;;;9.60;;
7166;SDS011;3625;51.762;14.320;2023-02-28T05:49:03;13.43;;;9.30;;
7166;SDS011;3625;51.762;14.320;2023-02-28T05:51:33;12.87;;;10.33;;
7166;SDS011;3625;51.762;14.320;2023-02-28T05:54:16;12.93;;;9.63;;
7166;SDS011;3625;51.762;14.320;2023-02-28T05:56:45;11.80;;;8.53;;
7166;SDS011;3625;51.762;14.320;2023-02-28T05:59:17;14.40;;;10.37;;
7166;SDS011;3625;51.762;14.320;2023-02-28T06:01:54;14.20;;;9.63;;
7166;SDS011;3625;51.762;14.320;2023-02-28T06:04:27;14.80;;;9.63;;
7166;SDS011;3625;51.762;14.320;2023-02-28T06:06:57;13.30;;;9.70;;
7166;SDS011;3625;51.762;14.320;2023-02-28T06:09:27;13.30;;;10.23;;
7166;SDS011;3625;51.762;14.320;2023-02-28T06:12:01;14.13;;;10.57;;
7166;SDS011;3625;51.762;14.320;2023-02-28T06:14:33;16.23;;;11.47;;
7166;SDS011;3625;51.762;14.320;2023-02-28T06:17:04;14.73;;;11.13;;
7166;SDS011;3625;51.762;14.320;2023-02-28T06:19:37;16.30;;;10.47;;
7166;SDS011;3625;51.762;14.320;2023-02-28T06:22:07;13.47;;;9.60;;
7166;SDS011;3625;51.762;14.320;2023-02-28T06:24:38;11.73;;;8.97;;
7166;SDS011;3625;51.762;14.320;2023-02-28T06:27:07;12.10;;;9.20;;
7166;SDS011;3625;51.762;14.320;2023-02-28T06:29:38;12.60;;;9.63;;
7166;SDS011;3625;51.762;14.320;2023-02-28T06:32:08;12.00;;;8.80;;
7166;SDS011;3625;51.762;14.320;2023-02-28T06:34:39;15.30;;;10.27;;
7166;SDS011;3625;51.762;14.320;2023-02-28T06:37:08;10.60;;;9.43;;
7166;SDS011;3625;51.762;14.320;2023-02-28T06:39:39;12.77;;;9.70;;
7166;SDS011;3625;51.762;14.320;2023-02-28T06:42:08;14.13;;;8.77;;
7166;SDS011;3625;51.762;14.320;2023-02-28T06:44:36;11.40;;;9.30;;
7166;SDS011;3625;51.762;14.320;2023-02-28T06:47:06;14.13;;;9.50;;
7166;SDS011;3625;51.762;14.320;2023-02-28T06:49:40;15.10;;;9.40;;
7166;SDS011;3625;51.762;14.320;2023-02-28T06:52:11;12.27;;;8.73;;
7166;SDS011;3625;51.762;14.320;2023-02-28T06:54:40;13.60;;;9.90;;
7166;SDS011;3625;51.762;14.320;2023-02-28T06:57:09;11.47;;;9.10;;
7166;SDS011;3625;51.762;14.320;2023-02-28T06:59:38;12.23;;;9.70;;
7166;SDS011;3625;51.762;14.320;2023-02-28T07:02:08;13.40;;;9.47;;
7166;SDS011;3625;51.762;14.320;2023-02-28T07:04:37;13.03;;;8.80;;
7166;SDS011;3625;51.762;14.320;2023-02-28T07:07:14;14.03;;;9.53;;
7166;SDS011;3625;51.762;14.320;2023-02-28T07:09:49;13.23;;;9.43;;
7166;SDS011;3625;51.762;14.320;2023-02-28T07:12:20;13.43;;;9.90;;
7166;SDS011;3625;51.762;14.320;2023-02-28T07:14:54;14.97;;;10.77;;
7166;SDS011;3625;51.762;14.320;2023-02-28T07:17:23;15.43;;;10.37;;
7166;SDS011;3625;51.762;14.320;2023-02-28T07:19:53;15.80;;;10.33;;
7166;SDS011;3625;51.762;14.320;2023-02-28T07:22:30;15.10;;;10.17;;
7166;SDS011;3625;51.762;14.320;2023-02-28T07:25:06;13.67;;;10.47;;
7166;SDS011;3625;51.762;14.320;2023-02-28T07:27:35;14.47;;;10.90;;
7166;SDS011;3625;51.762;14.320;2023-02-28T07:30:05;14.87;;;11.00;;
7166;SDS011;3625;51.762;14.320;2023-02-28T07:32:39;14.10;;;10.03;;
7166;SDS011;3625;51.762;14.320;2023-02-28T07:35:12;14.90;;;10.57;;
7166;SDS011;3625;51.762;14.320;2023-02-28T07:37:43;14.37;;;11.07;;
7166;SDS011;3625;51.762;14.320;2023-02-28T07:40:13;17.47;;;11.80;;
7166;SDS011;3625;51.762;14.320;2023-02-28T07:42:45;14.63;;;10.53;;
7166;SDS011;3625;51.762;14.320;2023-02-28T07:45:16;17.40;;;11.23;;
7166;SDS011;3625;51.762;14.320;2023-02-28T07:47:46;16.33;;;10.70;;
7166;SDS011;3625;51.762;14.320;2023-02-28T07:50:20;13.63;;;10.10;;
7166;SDS011;3625;51.762;14.320;2023-02-28T07:52:55;15.20;;;11.00;;
7166;SDS011;3625;51.762;14.320;2023-02-28T07:55:26;15.53;;;10.53;;
7166;SDS011;3625;51.762;14.320;2023-02-28T07:58:02;14.33;;;10.77;;
7166;SDS011;3625;51.762;14.320;2023-02-28T08:00:35;17.47;;;11.20;;
7166;SDS011;3625;51.762;14.320;2023-02-28T08:03:06;16.63;;;10.57;;
7166;SDS011;3625;51.762;14.320;2023-02-28T08:05:39;15.50;;;10.23;;
7166;SDS011;3625;51.762;14.320;2023-02-28T08:08:08;13.83;;;9.47;;
7166;SDS011;3625;51.762;14.320;2023-02-28T08:10:39;15.30;;;10.90;;
7166;SDS011;3625;51.762;14.320;2023-02-28T08:13:10;13.80;;;10.37;;
7166;SDS011;3625;51.762;14.320;2023-02-28T08:15:44;18.23;;;11.37;;
7166;SDS011;3625;51.762;14.320;2023-02-28T08:18:16;16.17;;;10.80;;
7166;SDS011;3625;51.762;14.320;2023-02-28T08:20:46;19.60;;;10.07;;
7166;SDS011;3625;51.762;14.320;2023-02-28T08:23:18;13.50;;;10.30;;
7166;SDS011;3625;51.762;14.320;2023-02-28T08:25:52;14.30;;;10.03;;
7166;SDS011;3625;51.762;14.320;2023-02-28T08:28:23;13.07;;;9.90;;
7166;SDS011;3625;51.762;14.320;2023-02-28T08:30:57;14.47;;;10.53;;
7166;SDS011;3625;51.762;14.320;2023-02-28T08:33:36;14.67;;;9.80;;
7166;SDS011;3625;51.762;14.320;2023-02-28T08:36:08;14.57;;;9.43;;
7166;SDS011;3625;51.762;14.320;2023-02-28T08:38:45;17.00;;;10.07;;
7166;SDS011;3625;51.762;14.320;2023-02-28T08:41:18;12.10;;;9.00;;
7166;SDS011;3625;51.762;14.320;2023-02-28T08:43:49;14.17;;;10.17;;
7166;SDS011;3625;51.762;14.320;2023-02-28T08:46:21;13.10;;;9.60;;
7166;SDS011;3625;51.762;14.320;2023-02-28T08:48:52;16.20;;;10.23;;
7166;SDS011;3625;51.762;14.320;2023-02-28T08:51:28;13.63;;;8.53;;
7166;SDS011;3625;51.762;14.320;2023-02-28T08:53:59;11.67;;;8.40;;
7166;SDS011;3625;51.762;14.320;2023-02-28T08:56:31;13.70;;;7.90;;
7166;SDS011;3625;51.762;14.320;2023-02-28T08:59:00;11.93;;;9.00;;
7166;SDS011;3625;51.762;14.320;2023-02-28T09:01:29;11.37;;;8.13;;
7166;SDS011;3625;51.762;14.320;2023-02-28T09:03:59;9.30;;;7.30;;
7166;SDS011;3625;51.762;14.320;2023-02-28T09:06:36;8.87;;;6.80;;
7166;SDS011;3625;51.762;14.320;2023-02-28T09:09:07;10.07;;;7.50;;
7166;SDS011;3625;51.762;14.320;2023-02-28T09:11:38;10.67;;;7.67;;
7166;SDS011;3625;51.762;14.320;2023-02-28T09:14:07;7.50;;;6.67;;
7166;SDS011;3625;51.762;14.320;2023-02-28T09:16:35;10.73;;;7.53;;
7166;SDS011;3625;51.762;14.320;2023-02-28T09:19:04;9.20;;;7.03;;
7166;SDS011;3625;51.762;14.320;2023-02-28T09:21:33;8.30;;;6.80;;
7166;SDS011;3625;51.762;14.320;2023-02-28T09:24:04;8.90;;;6.90;;
7166;SDS011;3625;51.762;14.320;2023-02-28T09:26:35;10.93;;;7.37;;
7166;SDS011;3625;51.762;14.320;2023-02-28T09:29:37;10.47;;;7.27;;
7166;SDS011;3625;51.762;14.320;2023-02-28T09:32:09;11.53;;;6.60;;
7166;SDS011;3625;51.762;14.320;2023-02-28T09:34:38;8.40;;;7.00;;
7166;SDS011;3625;51.762;14.320;2023-02-28T09:37:14;8.37;;;6.77;;
7166;SDS011;3625;51.762;14.320;2023-02-28T09:39:51;7.60;;;6.27;;
7166;SDS011;3625;51.762;14.320;2023-02-28T09:42:25;8.63;;;6.33;;
7166;SDS011;3625;51.762;14.320;2023-02-28T09:45:06;6.07;;;5.47;;
7166;SDS011;3625;51.762;14.320;2023-02-28T09:47:51;5.30;;;4.80;;
7166;SDS011;3625;51.762;14.320;2023-02-28T09:50:30;5.57;;;4.87;;
7166;SDS011;3625;51.762;14.320;2023-02-28T09:53:33;6.63;;;4.63;;
7166;SDS011;3625;51.762;14.320;2023-02-28T09:56:07;4.33;;;3.87;;
7166;SDS011;3625;51.762;14.320;2023-02-28T09:58:39;7.23;;;5.17;;
7166;SDS011;3625;51.762;14.320;2023-02-28T10:01:18;7.47;;;5.30;;
7166;SDS011;3625;51.762;14.320;2023-02-28T10:04:02;6.43;;;4.90;;
7166;SDS011;3625;51.762;14.320;2023-02-28T10:06:49;5.57;;;5.07;;
7166;SDS011;3625;51.762;14.320;2023-02-28T10:09:22;6.70;;;4.97;;
7166;SDS011;3625;51.762;14.320;2023-02-28T10:11:59;6.20;;;4.20;;
7166;SDS011;3625;51.762;14.320;2023-02-28T10:14:44;4.50;;;4.10;;
7166;SDS011;3625;51.762;14.320;2023-02-28T10:17:36;7.00;;;4.83;;
7166;SDS011;3625;51.762;14.320;2023-02-28T10:20:33;6.27;;;5.07;;
7166;SDS011;3625;51.762;14.320;2023-02-28T10:23:09;4.57;;;4.17;;
7166;SDS011;3625;51.762;14.320;2023-02-28T10:25:50;5.17;;;4.43;;
7166;SDS011;3625;51.762;14.320;2023-02-28T10:28:27;8.10;;;5.27;;
7166;SDS011;3625;51.762;14.320;2023-02-28T10:30:59;6.87;;;5.33;;
7166;SDS011;3625;51.762;14.320;2023-02-28T10:33:29;5.80;;;4.70;;
7166;SDS011;3625;51.762;14.320;2023-02-28T10:36:02;5.50;;;4.20;;
7166;SDS011;3625;51.762;14.320;2023-02-28T10:38:33;6.53;;;5.00;;
7166;SDS011;3625;51.762;14.320;2023-02-28T10:41:07;5.37;;;4.40;;
7166;SDS011;3625;51.762;14.320;2023-02-28T10:43:39;6.30;;;5.10;;
7166;SDS011;3625;51.762;14.320;2023-02-28T10:46:16;5.93;;;4.57;;
7166;SDS011;3625;51.762;14.320;2023-02-28T10:49:00;4.97;;;4.37;;
7166;SDS011;3625;51.762;14.320;2023-02-28T10:51:36;5.77;;;4.27;;
7166;SDS011;3625;51.762;14.320;2023-02-28T10:54:14;5.57;;;4.57;;
7166;SDS011;3625;51.762;14.320;2023-02-28T10:59:40;6.00;;;4.63;;
7166;SDS011;3625;51.762;14.320;2023-02-28T11:02:30;8.63;;;5.23;;
7166;SDS011;3625;51.762;14.320;2023-02-28T11:05:25;6.03;;;5.40;;
7166;SDS011;3625;51.762;14.320;2023-02-28T11:07:58;6.13;;;4.83;;
7166;SDS011;3625;51.762;14.320;2023-02-28T11:10:33;6.83;;;5.13;;
7166;SDS011;3625;51.762;14.320;2023-02-28T11:13:03;8.70;;;5.53;;
7166;SDS011;3625;51.762;14.320;2023-02-28T11:15:34;7.53;;;5.50;;
7166;SDS011;3625;51.762;14.320;2023-02-28T11:18:06;7.10;;;5.43;;
7166;SDS011;3625;51.762;14.320;2023-02-28T11:20:53;9.83;;;4.23;;
7166;SDS011;3625;51.762;14.320;2023-02-28T11:23:25;6.23;;;4.60;;
7166;SDS011;3625;51.762;14.320;2023-02-28T11:25:58;6.77;;;5.10;;
7166;SDS011;3625;51.762;14.320;2023-02-28T11:28:31;5.80;;;4.47;;
7166;SDS011;3625;51.762;14.320;2023-02-28T11:31:14;10.03;;;5.27;;
7166;SDS011;3625;51.762;14.320;2023-02-28T11:33:50;5.70;;;4.63;;
7166;SDS011;3625;51.762;14.320;2023-02-28T11:36:28;5.30;;;4.50;;
7166;SDS011;3625;51.762;14.320;2023-02-28T11:39:04;6.97;;;4.70;;
7166;SDS011;3625;51.762;14.320;2023-02-28T11:41:53;5.53;;;5.00;;
7166;SDS011;3625;51.762;14.320;2023-02-28T11:44:41;7.27;;;4.63;;
7166;SDS011;3625;51.762;14.320;2023-02-28T11:47:28;9.27;;;4.87;;
7166;SDS011;3625;51.762;14.320;2023-02-28T11:53:10;6.50;;;5.20;;
7166;SDS011;3625;51.762;14.320;2023-02-28T11:55:58;6.40;;;4.97;;
7166;SDS011;3625;51.762;14.320;2023-02-28T11:58:40;5.67;;;4.90;;
7166;SDS011;3625;51.762;14.320;2023-02-28T12:01:36;6.30;;;4.53;;
7166;SDS011;3625;51.762;14.320;2023-02-28T12:04:26;5.67;;;5.03;;
7166;SDS011;3625;51.762;14.320;2023-02-28T12:07:09;7.87;;;4.90;;
7166;SDS011;3625;51.762;14.320;2023-02-28T12:10:04;6.27;;;4.83;;
7166;SDS011;3625;51.762;14.320;2023-02-28T12:13:01;5.90;;;4.40;;
7166;SDS011;3625;51.762;14.320;2023-02-28T12:16:04;5.90;;;5.00;;
7166;SDS011;3625;51.762;14.320;2023-02-28T12:18:53;5.77;;;5.00;;
7166;SDS011;3625;51.762;14.320;2023-02-28T12:21:46;4.27;;;3.97;;
7166;SDS011;3625;51.762;14.320;2023-02-28T12:24:45;5.27;;;4.40;;
7166;SDS011;3625;51.762;14.320;2023-02-28T12:27:52;4.40;;;3.73;;
7166;SDS011;3625;51.762;14.320;2023-02-28T12:30:26;6.17;;;5.13;;
7166;SDS011;3625;51.762;14.320;2023-02-28T12:33:01;4.63;;;3.97;;
7166;SDS011;3625;51.762;14.320;2023-02-28T12:35:37;4.00;;;3.40;;
7166;SDS011;3625;51.762;14.320;2023-02-28T12:38:18;5.50;;;4.17;;
7166;SDS011;3625;51.762;14.320;2023-02-28T12:40:52;4.23;;;3.83;;
7166;SDS011;3625;51.762;14.320;2023-02-28T12:43:37;5.13;;;4.20;;
7166;SDS011;3625;51.762;14.320;2023-02-28T12:46:12;4.20;;;3.67;;
7166;SDS011;3625;51.762;14.320;2023-02-28T12:48:52;4.57;;;3.90;;
7166;SDS011;3625;51.762;14.320;2023-02-28T12:51:27;4.07;;;3.67;;
7166;SDS011;3625;51.762;14.320;2023-02-28T12:54:00;4.53;;;3.93;;
7166;SDS011;3625;51.762;14.320;2023-02-28T12:56:42;4.60;;;4.10;;
7166;SDS011;3625;51.762;14.320;2023-02-28T12:59:37;4.03;;;3.63;;
7166;SDS011;3625;51.762;14.320;2023-02-28T13:02:40;4.67;;;4.03;;
7166;SDS011;3625;51.762;14.320;2023-02-28T13:05:56;4.83;;;4.10;;
7166;SDS011;3625;51.762;14.320;2023-02-28T13:09:02;5.90;;;5.30;;
7166;SDS011;3625;51.762;14.320;2023-02-28T13:11:41;4.53;;;4.03;;
7166;SDS011;3625;51.762;14.320;2023-02-28T13:14:22;6.00;;;4.13;;
7166;SDS011;3625;51.762;14.320;2023-02-28T13:16:57;5.57;;;4.30;;
7166;SDS011;3625;51.762;14.320;2023-02-28T13:19:46;5.77;;;4.03;;
7166;SDS011;3625;51.762;14.320;2023-02-28T13:22:36;4.83;;;4.33;;
7166;SDS011;3625;51.762;14.320;2023-02-28T13:31:29;5.40;;;3.90;;
7166;SDS011;3625;51.762;14.320;2023-02-28T13:34:12;7.83;;;5.00;;
7166;SDS011;3625;51.762;14.320;2023-02-28T13:36:51;4.70;;;3.73;;
7166;SDS011;3625;51.762;14.320;2023-02-28T13:40:27;6.50;;;4.20;;
7166;SDS011;3625;51.762;14.320;2023-02-28T13:43:08;5.47;;;4.87;;
7166;SDS011;3625;51.762;14.320;2023-02-28T13:46:08;5.30;;;4.50;;
7166;SDS011;3625;51.762;14.320;2023-02-28T13:48:42;5.83;;;4.70;;
7166;SDS011;3625;51.762;14.320;2023-02-28T13:54:24;5.60;;;4.53;;
7166;SDS011;3625;51.762;14.320;2023-02-28T13:57:18;6.00;;;4.27;;
7166;SDS011;3625;51.762;14.320;2023-02-28T14:00:06;5.97;;;4.53;;
7166;SDS011;3625;51.762;14.320;2023-02-28T14:02:58;5.70;;;4.20;;
7166;SDS011;3625;51.762;14.320;2023-02-28T14:05:44;4.93;;;4.53;;
7166;SDS011;3625;51.762;14.320;2023-02-28T14:08:16;5.33;;;4.73;;
7166;SDS011;3625;51.762;14.320;2023-02-28T14:10:52;6.10;;;4.47;;
7166;SDS011;3625;51.762;14.320;2023-02-28T14:13:38;7.10;;;4.97;;
7166;SDS011;3625;51.762;14.320;2023-02-28T14:16:15;4.90;;;4.40;;
7166;SDS011;3625;51.762;14.320;2023-02-28T14:18:49;6.07;;;4.90;;
7166;SDS011;3625;51.762;14.320;2023-02-28T14:21:26;6.63;;;4.97;;
7166;SDS011;3625;51.762;14.320;2023-02-28T14:27:32;7.37;;;4.60;;
7166;SDS011;3625;51.762;14.320;2023-02-28T14:30:26;6.70;;;5.57;;
7166;SDS011;3625;51.762;14.320;2023-02-28T14:33:34;5.17;;;4.37;;
7166;SDS011;3625;51.762;14.320;2023-02-28T14:36:18;4.97;;;4.30;;
7166;SDS011;3625;51.762;14.320;2023-02-28T14:38:57;6.33;;;4.70;;
7166;SDS011;3625;51.762;14.320;2023-02-28T14:41:35;6.40;;;5.13;;
7166;SDS011;3625;51.762;14.320;2023-02-28T14:44:14;5.33;;;4.83;;
7166;SDS011;3625;51.762;14.320;2023-02-28T14:46:48;5.37;;;4.63;;
7166;SDS011;3625;51.762;14.320;2023-02-28T14:49:20;7.40;;;5.37;;
7166;SDS011;3625;51.762;14.320;2023-02-28T14:52:05;6.67;;;5.00;;
7166;SDS011;3625;51.762;14.320;2023-02-28T14:54:42;6.33;;;4.90;;
7166;SDS011;3625;51.762;14.320;2023-02-28T14:57:22;5.57;;;4.60;;
7166;SDS011;3625;51.762;14.320;2023-02-28T14:59:57;6.03;;;4.87;;
7166;SDS011;3625;51.762;14.320;2023-02-28T15:02:37;6.67;;;4.87;;
7166;SDS011;3625;51.762;14.320;2023-02-28T15:08:03;5.13;;;4.50;;
7166;SDS011;3625;51.762;14.320;2023-02-28T15:10:39;6.10;;;4.70;;
7166;SDS011;3625;51.762;14.320;2023-02-28T15:13:12;6.70;;;5.23;;
7166;SDS011;3625;51.762;14.320;2023-02-28T15:15:43;5.67;;;5.13;;
7166;SDS011;3625;51.762;14.320;2023-02-28T15:18:33;5.27;;;4.47;;
7166;SDS011;3625;51.762;14.320;2023-02-28T15:21:26;7.50;;;4.73;;
7166;SDS011;3625;51.762;14.320;2023-02-28T15:24:04;7.30;;;4.93;;
7166;SDS011;3625;51.762;14.320;2023-02-28T15:26:51;7.23;;;5.07;;
7166;SDS011;3625;51.762;14.320;2023-02-28T15:29:27;8.37;;;5.43;;
7166;SDS011;3625;51.762;14.320;2023-02-28T15:32:05;8.40;;;4.53;;
7166;SDS011;3625;51.762;14.320;2023-02-28T15:34:37;8.10;;;5.10;;
7166;SDS011;3625;51.762;14.320;2023-02-28T15:37:33;4.90;;;4.40;;
7166;SDS011;3625;51.762;14.320;2023-02-28T15:40:13;5.40;;;4.63;;
7166;SDS011;3625;51.762;14.320;2023-02-28T15:43:02;6.10;;;5.20;;
7166;SDS011;3625;51.762;14.320;2023-02-28T15:45:36;7.93;;;4.57;;
7166;SDS011;3625;51.762;14.320;2023-02-28T15:48:15;7.57;;;4.80;;
7166;SDS011;3625;51.762;14.320;2023-02-28T15:50:53;5.93;;;5.00;;
7166;SDS011;3625;51.762;14.320;2023-02-28T15:53:36;7.47;;;5.40;;
7166;SDS011;3625;51.762;14.320;2023-02-28T15:56:16;5.10;;;4.60;;
7166;SDS011;3625;51.762;14.320;2023-02-28T15:58:54;5.83;;;4.40;;
7166;SDS011;3625;51.762;14.320;2023-02-28T16:01:33;6.63;;;4.87;;
7166;SDS011;3625;51.762;14.320;2023-02-28T16:04:05;6.27;;;5.43;;
7166;SDS011;3625;51.762;14.320;2023-02-28T16:06:47;7.27;;;5.37;;
7166;SDS011;3625;51.762;14.320;2023-02-28T16:09:33;6.53;;;5.20;;
7166;SDS011;3625;51.762;14.320;2023-02-28T16:12:09;9.00;;;5.57;;
7166;SDS011;3625;51.762;14.320;2023-02-28T16:14:42;6.37;;;5.40;;
7166;SDS011;3625;51.762;14.320;2023-02-28T16:17:15;6.50;;;5.07;;
7166;SDS011;3625;51.762;14.320;2023-02-28T16:19:51;8.73;;;5.80;;
7166;SDS011;3625;51.762;14.320;2023-02-28T16:22:21;7.57;;;5.57;;
7166;SDS011;3625;51.762;14.320;2023-02-28T16:24:57;7.77;;;5.53;;
7166;SDS011;3625;51.762;14.320;2023-02-28T16:27:43;9.27;;;7.33;;
7166;SDS011;3625;51.762;14.320;2023-02-28T16:30:31;8.03;;;6.40;;
7166;SDS011;3625;51.762;14.320;2023-02-28T16:33:03;8.97;;;6.53;;
7166;SDS011;3625;51.762;14.320;2023-02-28T16:35:35;8.23;;;6.03;;
7166;SDS011;3625;51.762;14.320;2023-02-28T16:38:04;9.47;;;6.20;;
7166;SDS011;3625;51.762;14.320;2023-02-28T16:40:37;8.33;;;5.90;;
7166;SDS011;3625;51.762;14.320;2023-02-28T16:43:13;6.80;;;6.07;;
7166;SDS011;3625;51.762;14.320;2023-02-28T16:46:25;10.23;;;6.53;;
7166;SDS011;3625;51.762;14.320;2023-02-28T16:49:09;8.37;;;6.67;;
7166;SDS011;3625;51.762;14.320;2023-02-28T16:51:39;7.83;;;6.77;;
7166;SDS011;3625;51.762;14.320;2023-02-28T16:54:08;9.10;;;7.33;;
7166;SDS011;3625;51.762;14.320;2023-02-28T16:56:38;10.97;;;8.23;;
7166;SDS011;3625;51.762;14.320;2023-02-28T16:59:12;8.13;;;7.07;;
7166;SDS011;3625;51.762;14.320;2023-02-28T17:01:42;10.37;;;7.47;;
7166;SDS011;3625;51.762;14.320;2023-02-28T17:04:11;7.57;;;6.80;;
7166;SDS011;3625;51.762;14.320;2023-02-28T17:06:40;7.90;;;7.10;;
7166;SDS011;3625;51.762;14.320;2023-02-28T17:09:10;8.37;;;7.00;;
7166;SDS011;3625;51.762;14.320;2023-02-28T17:11:48;10.20;;;7.10;;
7166;SDS011;3625;51.762;14.320;2023-02-28T17:14:17;8.33;;;7.50;;
7166;SDS011;3625;51.762;14.320;2023-02-28T17:16:45;9.27;;;7.07;;
7166;SDS011;3625;51.762;14.320;2023-02-28T17:19:15;8.70;;;7.20;;
7166;SDS011;3625;51.762;14.320;2023-02-28T17:21:44;9.80;;;8.80;;
7166;SDS011;3625;51.762;14.320;2023-02-28T17:24:13;8.57;;;7.70;;
7166;SDS011;3625;51.762;14.320;2023-02-28T17:26:57;12.80;;;11.07;;
7166;SDS011;3625;51.762;14.320;2023-02-28T17:29:26;11.57;;;8.43;;
7166;SDS011;3625;51.762;14.320;2023-02-28T17:31:55;11.67;;;8.77;;
7166;SDS011;3625;51.762;14.320;2023-02-28T17:34:28;10.57;;;9.10;;
7166;SDS011;3625;51.762;14.320;2023-02-28T17:36:57;11.70;;;8.73;;
7166;SDS011;3625;51.762;14.320;2023-02-28T17:39:26;12.57;;;8.00;;
7166;SDS011;3625;51.762;14.320;2023-02-28T17:41:54;14.77;;;9.80;;
7166;SDS011;3625;51.762;14.320;2023-02-28T17:44:25;15.70;;;12.37;;
7166;SDS011;3625;51.762;14.320;2023-02-28T17:46:54;12.13;;;10.33;;
7166;SDS011;3625;51.762;14.320;2023-02-28T17:49:23;12.53;;;10.73;;
7166;SDS011;3625;51.762;14.320;2023-02-28T17:51:52;17.27;;;13.63;;
7166;SDS011;3625;51.762;14.320;2023-02-28T17:54:20;18.97;;;14.43;;
7166;SDS011;3625;51.762;14.320;2023-02-28T17:56:49;19.23;;;14.93;;
7166;SDS011;3625;51.762;14.320;2023-02-28T17:59:19;21.93;;;15.87;;
7166;SDS011;3625;51.762;14.320;2023-02-28T18:01:48;17.70;;;13.90;;
7166;SDS011;3625;51.762;14.320;2023-02-28T18:04:17;17.50;;;12.63;;
7166;SDS011;3625;51.762;14.320;2023-02-28T18:06:45;13.87;;;11.80;;
7166;SDS011;3625;51.762;14.320;2023-02-28T18:09:17;15.03;;;12.17;;
7166;SDS011;3625;51.762;14.320;2023-02-28T18:11:48;17.27;;;14.20;;
7166;SDS011;3625;51.762;14.320;2023-02-28T18:14:20;19.93;;;14.50;;
7166;SDS011;3625;51.762;14.320;2023-02-28T18:16:52;15.40;;;11.47;;
7166;SDS011;3625;51.762;14.320;2023-02-28T18:19:23;13.70;;;10.37;;
7166;SDS011;3625;51.762;14.320;2023-02-28T18:21:56;20.20;;;15.43;;
7166;SDS011;3625;51.762;14.320;2023-02-28T18:24:24;20.73;;;15.83;;
7166;SDS011;3625;51.762;14.320;2023-02-28T18:26:53;14.90;;;12.03;;
7166;SDS011;3625;51.762;14.320;2023-02-28T18:29:24;17.53;;;11.60;;
7166;SDS011;3625;51.762;14.320;2023-02-28T18:31:57;13.10;;;10.60;;
7166;SDS011;3625;51.762;14.320;2023-02-28T18:34:28;15.50;;;10.67;;
7166;SDS011;3625;51.762;14.320;2023-02-28T18:36:57;13.13;;;10.77;;
7166;SDS011;3625;51.762;14.320;2023-02-28T18:39:26;17.53;;;11.90;;
7166;SDS011;3625;51.762;14.320;2023-02-28T18:41:57;13.57;;;11.40;;
7166;SDS011;3625;51.762;14.320;2023-02-28T18:44:28;13.50;;;11.67;;
7166;SDS011;3625;51.762;14.320;2023-02-28T18:46:56;15.33;;;11.73;;
7166;SDS011;3625;51.762;14.320;2023-02-28T18:49:25;15.43;;;11.83;;
7166;SDS011;3625;51.762;14.320;2023-02-28T18:51:54;14.97;;;11.47;;
7166;SDS011;3625;51.762;14.320;2023-02-28T18:54:24;15.07;;;11.77;;
7166;SDS011;3625;51.762;14.320;2023-02-28T18:56:52;16.33;;;11.47;;
7166;SDS011;3625;51.762;14.320;2023-02-28T18:59:21;16.13;;;12.00;;
7166;SDS011;3625;51.762;14.320;2023-02-28T19:01:52;14.27;;;11.87;;
7166;SDS011;3625;51.762;14.320;2023-02-28T19:04:21;13.83;;;11.27;;
7166;SDS011;3625;51.762;14.320;2023-02-28T19:06:49;14.07;;;11.20;;
7166;SDS011;3625;51.762;14.320;2023-02-28T19:09:18;16.80;;;11.20;;
7166;SDS011;3625;51.762;14.320;2023-02-28T19:11:47;13.60;;;11.20;;
7166;SDS011;3625;51.762;14.320;2023-02-28T19:14:16;15.73;;;11.00;;
7166;SDS011;3625;51.762;14.320;2023-02-28T19:16:47;14.37;;;9.43;;
7166;SDS011;3625;51.762;14.320;2023-02-28T19:19:18;13.03;;;9.67;;
7166;SDS011;3625;51.762;14.320;2023-02-28T19:21:47;13.77;;;10.03;;
7166;SDS011;3625;51.762;14.320;2023-02-28T19:24:16;12.47;;;11.17;;
7166;SDS011;3625;51.762;14.320;2023-02-28T19:26:45;12.83;;;10.63;;
7166;SDS011;3625;51.762;14.320;2023-02-28T19:29:14;12.90;;;10.27;;
7166;SDS011;3625;51.762;14.320;2023-02-28T19:31:43;15.07;;;11.17;;
7166;SDS011;3625;51.762;14.320;2023-02-28T19:34:12;13.17;;;10.50;;
7166;SDS011;3625;51.762;14.320;2023-02-28T19:36:42;13.50;;;10.53;;
7166;SDS011;3625;51.762;14.320;2023-02-28T19:39:10;12.50;;;9.07;;
7166;SDS011;3625;51.762;14.320;2023-02-28T19:41:41;13.40;;;9.17;;
7166;SDS011;3625;51.762;14.320;2023-02-28T19:44:10;12.60;;;9.83;;
7166;SDS011;3625;51.762;14.320;2023-02-28T19:46:41;16.80;;;9.60;;
7166;SDS011;3625;51.762;14.320;2023-02-28T19:49:12;14.10;;;9.87;;
7166;SDS011;3625;51.762;14.320;2023-02-28T19:51:45;13.10;;;9.70;;
7166;SDS011;3625;51.762;14.320;2023-02-28T19:54:13;13.43;;;9.20;;
7166;SDS011;3625;51.762;14.320;2023-02-28T19:56:42;12.53;;;8.80;;
7166;SDS011;3625;51.762;14.320;2023-02-28T19:59:11;13.30;;;8.63;;
7166;SDS011;3625;51.762;14.320;2023-02-28T20:01:51;15.00;;;10.43;;
7166;SDS011;3625;51.762;14.320;2023-02-28T20:04:22;13.07;;;9.80;;
7166;SDS011;3625;51.762;14.320;2023-02-28T20:06:59;14.40;;;9.90;;
7166;SDS011;3625;51.762;14.320;2023-02-28T20:09:28;11.07;;;9.30;;
7166;SDS011;3625;51.762;14.320;2023-02-28T20:12:02;12.57;;;9.90;;
7166;SDS011;3625;51.762;14.320;2023-02-28T20:14:39;11.97;;;9.83;;
7166;SDS011;3625;51.762;14.320;2023-02-28T20:17:08;12.13;;;10.17;;
7166;SDS011;3625;51.762;14.320;2023-02-28T20:19:37;14.67;;;9.80;;